Time;durP1;ratioP1;P1;durP2;ratioP2;P2;SDS_P1;SDS_P2;PMS_P1;PMS_P2;Temp;Humidity;BMP_temperature;BMP_pressure;BME280_temperature;BME280_humidity;BME280_pressure;Samples;Min_cycle;Max_cycle;Signal;HPM_P1;HPM_P2
2022/04/18 00:01:10;;;;;;;6.47;3.47;;;;;;;8.13;64.90;100751.31;4940627;29;20482;-82
2022/04/18 00:03:36;;;;;;;5.25;3.10;;;;;;;8.10;65.39;100756.88;4957945;29;20082;-83
2022/04/18 00:06:02;;;;;;;11.02;3.45;;;;;;;8.08;65.30;100756.19;4957645;29;20039;-82
2022/04/18 00:08:28;;;;;;;9.05;3.70;;;;;;;7.77;67.26;100755.50;4957550;29;20031;-83
2022/04/18 00:10:53;;;;;;;8.73;3.67;;;;;;;7.75;67.80;100746.91;4958247;29;20042;-82
2022/04/18 00:13:19;;;;;;;6.15;3.47;;;;;;;7.82;68.08;100753.25;4960946;29;20073;-80
2022/04/18 00:15:44;;;;;;;6.38;2.92;;;;;;;7.97;66.28;100760.75;4974784;29;20031;-81
2022/04/18 00:18:10;;;;;;;11.00;3.42;;;;;;;7.84;66.91;100752.28;4958788;29;20475;-82
2022/04/18 00:20:36;;;;;;;8.13;3.30;;;;;;;7.73;67.39;100747.97;4957608;29;20031;-83
2022/04/18 00:23:01;;;;;;;6.53;3.55;;;;;;;7.66;67.11;100752.97;4957161;29;20046;-80
2022/04/18 00:25:27;;;;;;;12.02;4.05;;;;;;;7.52;66.61;100756.03;4958124;29;20039;-82
2022/04/18 00:27:52;;;;;;;5.80;2.90;;;;;;;7.67;66.73;100749.38;4958015;29;20035;-84
2022/04/18 00:30:21;;;;;;;5.80;3.10;;;;;;;7.72;65.34;100757.69;4957577;29;20035;-81
2022/04/18 00:32:46;;;;;;;4.95;2.65;;;;;;;7.70;64.95;100759.66;4956122;29;20054;-81
2022/04/18 00:35:12;;;;;;;5.35;2.70;;;;;;;7.80;64.12;100759.66;4957758;29;20069;-83
2022/04/18 00:37:40;;;;;;;7.68;3.22;;;;;;;8.11;62.62;100760.34;4943273;29;20023;-81
2022/04/18 00:40:07;;;;;;;5.60;3.00;;;;;;;8.10;62.03;100766.59;4971436;29;20123;-82
2022/04/18 00:42:34;;;;;;;7.82;2.83;;;;;;;8.07;61.90;100766.88;4958194;29;20087;-82
2022/04/18 00:45:00;;;;;;;3.97;2.53;;;;;;;8.26;62.06;100761.56;4958226;29;20127;-82
2022/04/18 00:47:25;;;;;;;5.78;2.80;;;;;;;8.12;62.97;100760.19;4957642;29;20082;-83
2022/04/18 00:49:51;;;;;;;4.95;2.63;;;;;;;7.90;64.30;100764.94;4957422;29;20062;-83
2022/04/18 00:52:17;;;;;;;6.85;3.03;;;;;;;7.84;65.14;100755.78;4957383;29;20032;-83
2022/04/18 00:54:43;;;;;;;5.93;3.20;;;;;;;7.86;64.55;100759.09;4956895;29;20094;-82
2022/04/18 00:57:09;;;;;;;5.68;3.35;;;;;;;7.82;64.51;100753.25;4955143;28;20039;-81
2022/04/18 00:59:37;;;;;;;8.05;2.88;;;;;;;7.67;65.16;100757.28;4955584;28;20039;-83
2022/04/18 01:02:04;;;;;;;8.95;3.53;;;;;;;7.57;66.26;100747.69;4957146;29;20040;-82
2022/04/18 01:04:31;;;;;;;6.20;2.92;;;;;;;7.38;67.59;100748.50;4957224;29;20027;-83
2022/04/18 01:07:02;;;;;;;9.02;2.70;;;;;;;7.22;67.43;100737.66;4956928;29;20035;-81
2022/04/18 01:09:28;;;;;;;5.37;3.17;;;;;;;7.20;68.01;100735.16;4957247;29;20038;-82
2022/04/18 01:11:54;;;;;;;5.05;2.90;;;;;;;7.27;68.41;100735.44;4955755;28;20035;-82
2022/04/18 01:14:25;;;;;;;6.07;3.50;;;;;;;7.29;68.32;100739.59;4957266;29;20078;-81
2022/04/18 01:16:54;;;;;;;3.75;2.50;;;;;;;7.23;69.14;100740.16;4956777;29;20047;-83
2022/04/18 01:19:38;;;;;;;9.02;3.03;;;;;;;7.04;68.83;100729.56;4956467;29;20422;-81
2022/04/18 01:22:22;;;;;;;3.88;2.67;;;;;;;7.02;69.48;100730.66;4956025;29;20457;-82
2022/04/18 01:30:40;;;;;;;3.53;2.65;;;;;;;6.82;68.97;100737.69;4955789;28;20039;-82
2022/04/18 01:33:08;;;;;;;6.20;2.95;;;;;;;6.98;68.23;100729.25;4955483;29;20042;-82
2022/04/18 01:35:36;;;;;;;7.00;2.90;;;;;;;6.78;68.85;100733.63;4959328;29;20041;-81
2022/04/18 01:38:02;;;;;;;7.55;3.00;;;;;;;6.68;68.13;100728.31;4974280;29;20047;-82
2022/04/18 01:40:28;;;;;;;8.50;3.13;;;;;;;6.90;66.62;100726.44;4955697;29;20031;-79
2022/04/18 01:42:53;;;;;;;8.00;3.00;;;;;;;6.86;66.23;100730.34;4939438;29;20126;-82
2022/04/18 01:45:19;;;;;;;5.40;3.17;;;;;;;6.81;65.89;100732.53;4954968;29;20046;-82
2022/04/18 01:47:53;;;;;;;6.45;3.70;;;;;;;6.88;65.27;100723.13;4955074;29;20046;-82
2022/04/18 01:50:19;;;;;;;4.65;2.80;;;;;;;6.99;64.79;100726.50;4955862;29;20043;-82
2022/04/18 01:52:45;;;;;;;9.48;3.50;;;;;;;7.14;64.22;100721.69;4956337;29;20046;-81
2022/04/18 01:55:11;;;;;;;4.40;2.70;;;;;;;7.29;64.13;100728.25;4956229;29;20386;-81
2022/04/18 01:57:37;;;;;;;6.57;2.70;;;;;;;7.45;63.32;100728.53;4963069;29;20110;-82
2022/04/18 02:00:03;;;;;;;10.02;3.30;;;;;;;7.56;63.06;100722.28;4963722;29;20124;-82
2022/04/18 02:02:39;;;;;;;6.25;2.70;;;;;;;7.45;61.61;100728.53;4967233;29;20405;-80
2022/04/18 02:05:07;;;;;;;6.15;2.72;;;;;;;7.39;60.30;100729.06;4962654;28;20023;-82
2022/04/18 02:07:33;;;;;;;4.90;2.45;;;;;;;7.31;60.27;100726.28;4971557;28;20051;-80
2022/04/18 02:09:59;;;;;;;3.90;2.55;;;;;;;7.28;59.39;100716.03;4972717;28;20031;-82
2022/04/18 02:12:25;;;;;;;8.77;2.90;;;;;;;7.43;57.64;100709.38;4976213;29;20031;-82
2022/04/18 02:14:56;;;;;;;5.37;2.53;;;;;;;7.42;57.75;100713.00;4959165;29;20031;-81
2022/04/18 02:17:24;;;;;;;3.88;2.70;;;;;;;7.47;57.47;100710.78;4961088;29;20066;-80
2022/04/18 02:19:50;;;;;;;7.47;2.35;;;;;;;7.39;57.87;100707.16;4955245;29;20174;-80
2022/04/18 02:22:15;;;;;;;5.18;2.30;;;;;;;7.60;56.99;100706.06;4954860;29;20031;-83
2022/04/18 02:24:42;;;;;;;3.50;2.30;;;;;;;7.65;57.12;100703.84;4955603;28;20047;-82
2022/04/18 02:27:09;;;;;;;5.32;2.58;;;;;;;7.60;56.99;100698.16;4954582;29;20123;-81
2022/04/18 02:29:34;;;;;;;4.15;2.42;;;;;;;7.26;59.04;100697.69;4954662;29;20483;-82
2022/04/18 02:34:44;;;;;;;6.45;2.40;;;;;;;7.15;60.30;100694.38;4955346;29;20394;-83
2022/04/18 02:37:10;;;;;;;4.68;2.53;;;;;;;6.96;60.84;100689.84;4954380;29;20035;-81
2022/04/18 02:39:37;;;;;;;6.93;2.50;;;;;;;6.82;61.67;100687.63;4954549;29;20031;-82
2022/04/18 02:42:03;;;;;;;4.38;2.67;;;;;;;6.78;62.19;100682.75;4957931;29;20082;-83
2022/04/18 02:44:31;;;;;;;4.88;2.30;;;;;;;6.90;62.14;100679.88;4967291;28;20038;-80
2022/04/18 02:46:57;;;;;;;2.67;2.40;;;;;;;6.96;62.27;100675.88;4956453;29;20426;-81
2022/04/18 02:49:23;;;;;;;5.75;3.58;;;;;;;6.85;62.83;100670.72;4956008;29;20035;-80
2022/04/18 02:51:49;;;;;;;4.20;2.38;;;;;;;7.23;61.14;100670.78;4954181;29;20491;-82
2022/04/18 02:54:17;;;;;;;5.00;2.50;;;;;;;7.07;60.56;100673.09;4954386;29;20123;-81
2022/04/18 02:56:48;;;;;;;3.80;2.47;;;;;;;7.27;59.74;100667.75;4955860;29;20032;-84
2022/04/18 02:59:16;;;;;;;3.72;2.40;;;;;;;7.34;59.24;100662.75;4968911;29;20038;-81
2022/04/18 03:01:42;;;;;;;7.40;3.05;;;;;;;7.12;59.82;100663.00;4960287;29;20518;-82
2022/04/18 03:04:11;;;;;;;4.43;2.70;;;;;;;7.23;59.97;100655.78;4954529;29;20035;-82
2022/04/18 03:06:36;;;;;;;8.43;2.63;;;;;;;7.20;59.93;100660.50;4953798;29;20098;-83
2022/04/18 03:09:02;;;;;;;3.63;2.25;;;;;;;7.06;60.53;100658.28;4953932;29;20495;-82
2022/04/18 03:11:28;;;;;;;3.97;2.60;;;;;;;7.18;59.48;100659.81;4955521;29;20074;-82
2022/04/18 03:13:55;;;;;;;3.63;2.30;;;;;;;7.19;59.72;100659.66;4954001;29;20087;-83
2022/04/18 03:16:32;;;;;;;4.97;2.50;;;;;;;7.28;58.48;100658.03;4953646;29;20035;-81
2022/04/18 03:18:58;;;;;;;4.00;2.42;;;;;;;7.34;58.59;100652.19;4954300;28;20031;-82
2022/04/18 03:21:24;;;;;;;3.58;2.28;;;;;;;7.17;59.21;100650.25;4942001;29;20094;-81
2022/04/18 03:23:54;;;;;;;8.30;2.75;;;;;;;7.19;59.04;100643.06;4957744;29;20375;-83
2022/04/18 03:26:35;;;;;;;5.47;2.35;;;;;;;7.13;58.99;100643.56;4941764;29;20062;-81
2022/04/18 03:29:09;;;;;;;8.13;2.60;;;;;;;6.73;59.70;100652.38;4959085;29;20031;-81
2022/04/18 03:31:34;;;;;;;9.05;2.72;;;;;;;6.40;60.16;100644.75;4957563;29;20090;-81
2022/04/18 03:34:01;;;;;;;4.28;2.38;;;;;;;6.42;60.07;100642.00;4959757;28;20475;-82
2022/04/18 03:41:58;;;;;;;5.22;2.28;;;;;;;6.44;60.48;100650.59;4958622;29;20057;-83
2022/04/18 03:44:24;;;;;;;6.90;2.63;;;;;;;6.54;60.02;100651.47;4957655;29;20522;-81
2022/04/18 03:46:49;;;;;;;9.43;2.50;;;;;;;6.75;59.08;100645.19;4958570;29;20039;-81
2022/04/18 03:49:15;;;;;;;7.95;3.35;;;;;;;6.87;58.78;100645.06;4960108;29;20123;-82
2022/04/18 03:51:45;;;;;;;4.78;2.33;;;;;;;6.84;58.60;100645.31;4958009;29;20446;-81
2022/04/18 03:54:12;;;;;;;6.97;2.60;;;;;;;6.74;59.45;100638.25;4958950;29;20094;-83
2022/04/18 03:56:38;;;;;;;6.53;2.50;;;;;;;6.64;60.04;100637.38;4958636;29;20031;-81
2022/04/18 03:59:15;;;;;;;9.40;2.78;;;;;;;6.47;60.41;100631.91;4958532;29;20133;-81
2022/04/18 04:02:02;;;;;;;9.10;2.50;;;;;;;6.73;59.18;100635.72;4957967;29;20062;-82
2022/04/18 04:04:30;;;;;;;5.45;2.63;;;;;;;6.81;59.14;100637.69;4959131;29;20046;-83
2022/04/18 04:06:59;;;;;;;6.18;2.45;;;;;;;7.03;58.36;100638.28;4958355;29;20038;-83
2022/04/18 04:09:25;;;;;;;8.18;3.00;;;;;;;7.21;57.88;100641.94;4958333;29;20379;-81
2022/04/18 04:11:51;;;;;;;11.10;2.38;;;;;;;7.20;57.73;100635.00;4957664;29;20058;-81
2022/04/18 04:14:20;;;;;;;4.65;2.38;;;;;;;7.19;57.79;100630.69;4957670;28;20044;-82
2022/04/18 04:16:47;;;;;;;4.22;2.50;;;;;;;7.05;58.37;100635.53;4957789;28;20035;-82
2022/04/18 04:19:13;;;;;;;7.72;2.75;;;;;;;6.89;58.89;100629.97;4961204;29;20105;-82
2022/04/18 04:21:39;;;;;;;7.38;2.60;;;;;;;6.85;58.81;100633.84;4973730;29;20015;-81
2022/04/18 04:24:06;;;;;;;5.28;2.70;;;;;;;6.85;58.47;100639.09;4962840;29;20399;-83
2022/04/18 04:26:44;;;;;;;4.43;2.58;;;;;;;6.69;59.20;100637.78;4957297;28;20042;-82
2022/04/18 04:29:12;;;;;;;4.82;2.78;;;;;;;6.80;58.95;100641.28;4957667;29;20035;-83
2022/04/18 04:31:47;;;;;;;6.97;2.75;;;;;;;6.88;58.29;100628.28;4956134;28;20036;-80
2022/04/18 04:34:13;;;;;;;4.68;2.53;;;;;;;6.94;58.33;100635.66;4961568;29;20089;-82
2022/04/18 04:36:45;;;;;;;7.65;2.95;;;;;;;6.98;57.95;100634.41;4961519;28;20035;-82
2022/04/18 04:39:14;;;;;;;9.48;2.88;;;;;;;7.17;57.88;100631.78;4960242;29;20151;-83
2022/04/18 04:41:43;;;;;;;10.82;3.63;;;;;;;7.10;57.78;100638.56;4957055;28;20020;-81
2022/04/18 04:44:09;;;;;;;11.43;3.80;;;;;;;6.81;58.89;100637.69;4956212;28;20044;-83
2022/04/18 04:46:48;;;;;;;9.05;3.20;;;;;;;6.69;59.17;100634.34;4957257;29;20106;-82
2022/04/18 04:49:17;;;;;;;7.35;3.30;;;;;;;6.86;58.24;100641.59;4957082;29;20047;-81
2022/04/18 04:51:57;;;;;;;4.85;2.50;;;;;;;6.85;58.41;100632.03;4956866;29;20039;-80
2022/04/18 04:54:23;;;;;;;7.03;3.35;;;;;;;6.87;57.86;100638.00;4957829;29;20402;-82
2022/04/18 04:56:49;;;;;;;9.40;3.13;;;;;;;7.13;57.06;100633.03;4957503;29;20074;-84
2022/04/18 04:59:17;;;;;;;11.15;2.92;;;;;;;7.10;57.61;100641.22;4957908;28;20134;-82
2022/04/18 05:01:42;;;;;;;7.65;2.70;;;;;;;7.06;57.69;100642.47;4959060;29;20110;-83
2022/04/18 05:04:11;;;;;;;7.25;3.20;;;;;;;7.40;56.87;100641.09;4958605;29;20041;-84
2022/04/18 05:06:40;;;;;;;7.32;3.10;;;;;;;7.37;56.90;100646.66;4960794;29;20114;-82
2022/04/18 05:09:10;;;;;;;4.68;2.90;;;;;;;7.67;56.21;100638.59;4960005;28;20039;-82
2022/04/18 05:11:37;;;;;;;6.68;3.13;;;;;;;7.77;55.69;100639.41;4960628;29;20063;-84
2022/04/18 05:14:03;;;;;;;6.07;2.88;;;;;;;7.79;55.35;100642.72;4972168;29;20051;-83
2022/04/18 05:16:47;;;;;;;11.40;3.10;;;;;;;7.70;55.77;100646.22;4960731;29;20114;-85
2022/04/18 05:19:39;;;;;;;9.88;2.67;;;;;;;8.13;54.13;100644.88;4957065;29;20051;-88
2022/04/18 05:22:25;;;;;;;17.20;3.30;;;;;;;8.03;54.04;100641.44;4963006;29;20035;-85
2022/04/18 05:24:51;;;;;;;18.35;3.15;;;;;;;8.25;53.40;100643.75;4943633;29;20041;-85
2022/04/18 05:27:26;;;;;;;11.15;3.17;;;;;;;8.37;52.37;100649.69;4962053;29;20027;-86
2022/04/18 05:29:52;;;;;;;7.65;2.65;;;;;;;9.10;50.89;100640.84;4964168;29;20130;-88
2022/04/18 05:32:38;;;;;;;14.98;3.20;;;;;;;9.57;48.72;100642.28;4964983;29;20054;-89
2022/04/18 05:35:10;;;;;;;6.55;2.75;;;;;;;10.89;46.79;100645.41;4961069;28;20058;-85
2022/04/18 05:37:36;;;;;;;6.28;2.95;;;;;;;12.04;43.95;100647.16;4963322;29;20031;-84
2022/04/18 05:40:10;;;;;;;7.68;3.00;;;;;;;11.20;44.25;100639.50;4935086;29;20057;-85
2022/04/18 05:42:36;;;;;;;7.47;3.00;;;;;;;10.94;45.64;100630.84;4969036;28;20039;-86
2022/04/18 05:45:13;;;;;;;7.55;2.95;;;;;;;10.70;46.32;100635.06;4973948;29;20039;-83
2022/04/18 05:47:56;;;;;;;15.63;2.63;;;;;;;10.17;47.87;100634.47;4965106;29;20035;-85
2022/04/18 05:50:23;;;;;;;8.02;3.03;;;;;;;11.65;45.36;100637.22;4942614;29;20118;-85
2022/04/18 05:53:11;;;;;;;7.93;2.67;;;;;;;11.84;45.33;100636.91;4958983;28;20553;-85
2022/04/18 05:55:56;;;;;;;11.52;2.70;;;;;;;12.28;43.79;100644.47;4962053;29;20042;-84
2022/04/18 05:58:35;;;;;;;6.20;3.10;;;;;;;11.69;45.33;100641.22;4957229;29;20043;-86
2022/04/18 06:01:08;;;;;;;7.95;3.45;;;;;;;11.35;46.83;100630.75;4950193;29;20488;-87
2022/04/18 06:03:34;;;;;;;9.20;3.03;;;;;;;11.75;46.04;100632.59;4950479;29;20131;-87
2022/04/18 06:06:03;;;;;;;5.45;3.30;;;;;;;12.12;44.87;100633.88;4952291;28;20032;-85
2022/04/18 06:08:28;;;;;;;10.15;4.13;;;;;;;13.35;42.73;100626.88;4952973;29;20032;-86
2022/04/18 06:10:58;;;;;;;10.32;3.45;;;;;;;12.95;43.30;100629.75;4929797;29;20031;-85
2022/04/18 06:13:43;;;;;;;7.72;3.42;;;;;;;12.57;43.24;100639.38;4950459;29;20086;-87
2022/04/18 06:16:19;;;;;;;10.13;3.00;;;;;;;12.55;42.14;100630.78;4962153;29;20037;-89
2022/04/18 06:18:47;;;;;;;6.65;3.00;;;;;;;12.33;42.74;100637.63;4965732;29;20039;-86
2022/04/18 06:21:17;;;;;;;5.35;2.67;;;;;;;13.01;42.37;100633.53;4949327;29;20035;-86
2022/04/18 06:23:44;;;;;;;10.18;2.90;;;;;;;15.20;37.98;100630.38;4942741;29;20036;-85
2022/04/18 06:26:28;;;;;;;4.53;2.38;;;;;;;17.10;33.92;100633.59;4967602;29;20065;-87
2022/04/18 06:28:57;;;;;;;6.60;2.13;;;;;;;17.91;32.02;100632.47;4970609;28;20078;-87
2022/04/18 06:31:24;;;;;;;4.65;2.25;;;;;;;17.29;33.17;100632.81;4956799;29;20035;-88
2022/04/18 06:34:25;;;;;;;4.35;2.20;;;;;;;18.54;30.69;100639.00;4949516;29;20052;-87
2022/04/18 06:36:52;;;;;;;6.15;2.10;;;;;;;18.57;30.41;100638.59;4964207;29;20111;-87
2022/04/18 06:40:04;;;;;;;3.70;2.17;;;;;;;19.17;28.66;100641.84;4958298;29;20024;-89
2022/04/18 06:42:39;;;;;;;6.00;2.28;;;;;;;17.96;30.41;100630.81;4976623;28;20031;-85
2022/04/18 06:45:11;;;;;;;4.60;2.05;;;;;;;17.84;30.37;100629.81;4969558;28;20039;-88
2022/04/18 06:47:37;;;;;;;9.18;2.47;;;;;;;18.53;30.00;100640.88;4978186;28;20039;-89
2022/04/18 06:50:12;;;;;;;5.47;2.40;;;;;;;19.91;28.76;100637.44;4969781;29;20043;-87
2022/04/18 06:53:05;;;;;;;8.02;2.75;;;;;;;18.03;32.04;100637.00;4945357;28;20038;-85
2022/04/18 06:58:42;;;;;;;6.38;2.42;;;;;;;18.14;30.68;100627.50;4964730;28;20035;-88
2022/04/18 07:01:08;;;;;;;5.03;2.05;;;;;;;18.69;30.11;100625.34;4974431;29;20041;-87
2022/04/18 07:03:34;;;;;;;6.57;2.50;;;;;;;18.56;30.59;100623.50;4973277;29;20075;-84
2022/04/18 07:06:00;;;;;;;4.78;2.40;;;;;;;18.22;31.39;100615.75;4977152;29;20059;-88
2022/04/18 07:08:26;;;;;;;4.28;2.08;;;;;;;18.45;30.21;100618.78;4971920;29;20129;-86
2022/04/18 07:10:55;;;;;;;4.43;2.10;;;;;;;18.31;31.31;100618.00;4965973;29;20031;-85
2022/04/18 07:13:24;;;;;;;4.32;1.90;;;;;;;19.71;29.88;100615.25;4961127;29;20038;-85
2022/04/18 07:15:50;;;;;;;7.47;2.45;;;;;;;18.27;31.85;100615.91;4959209;28;20054;-86
2022/04/18 07:18:17;;;;;;;8.95;2.30;;;;;;;19.58;30.07;100615.38;4946606;29;20043;-89
2022/04/18 07:20:42;;;;;;;3.60;2.17;;;;;;;19.31;31.05;100609.31;4946480;29;20455;-88
2022/04/18 07:23:08;;;;;;;4.05;1.80;;;;;;;19.08;31.29;100609.03;4962180;29;20105;-86
2022/04/18 07:25:43;;;;;;;8.68;2.25;;;;;;;18.06;33.02;100609.75;4945574;29;20035;-88
2022/04/18 07:28:31;;;;;;;5.07;2.28;;;;;;;17.67;33.92;100609.78;4966173;29;20040;-86
2022/04/18 07:30:58;;;;;;;6.20;2.42;;;;;;;18.63;32.66;100602.03;4976170;29;20042;-85
2022/04/18 07:33:30;;;;;;;6.18;2.20;;;;;;;18.60;31.61;100600.59;4956364;29;20126;-88
2022/04/18 07:35:56;;;;;;;;;;;;;;;18.06;31.87;100601.72;4974352;29;20042;-87
2022/04/18 07:41:06;;;;;;;5.47;2.00;;;;;;;19.30;29.58;100598.78;4968357;28;20043;-86
2022/04/18 07:43:38;;;;;;;3.90;1.83;;;;;;;18.00;29.40;100586.47;4962623;29;20059;-87
2022/04/18 07:46:07;;;;;;;5.13;1.77;;;;;;;18.36;26.72;100594.03;4958163;28;20275;-86
2022/04/18 07:48:34;;;;;;;3.53;1.63;;;;;;;18.49;25.77;100593.97;4972532;28;20039;-84
2022/04/18 07:53:45;;;;;;;3.83;1.88;;;;;;;17.84;26.88;100600.31;4976305;28;20070;-86
2022/04/18 07:56:11;;;;;;;5.63;1.90;;;;;;;18.36;26.04;100588.66;4954714;29;20027;-86
2022/04/18 07:58:37;;;;;;;7.25;2.40;;;;;;;17.98;26.41;100587.72;4963676;29;20040;-85
2022/04/18 08:01:08;;;;;;;6.50;2.10;;;;;;;17.95;26.29;100585.47;4967621;29;20034;-84
2022/04/18 08:03:35;;;;;;;3.75;1.70;;;;;;;18.28;25.14;100596.13;4973188;29;20059;-86
2022/04/18 08:06:02;;;;;;;4.70;1.55;;;;;;;17.99;25.06;100597.41;4952150;29;20126;-88
2022/04/18 08:08:44;;;;;;;5.65;1.77;;;;;;;18.25;25.46;100583.13;4967105;29;20058;-87
2022/04/18 08:11:11;;;;;;;5.90;2.10;;;;;;;18.28;26.18;100580.03;4975370;28;20094;-86
2022/04/18 08:13:40;;;;;;;2.10;1.55;;;;;;;18.50;26.19;100574.19;4960129;29;20071;-85
2022/04/18 08:16:24;;;;;;;3.00;1.85;;;;;;;17.97;26.61;100578.84;4957813;29;20080;-83
2022/04/18 08:18:56;;;;;;;6.00;2.00;;;;;;;18.34;25.38;100579.16;4962217;29;20031;-88
2022/04/18 08:21:27;;;;;;;3.90;1.83;;;;;;;18.76;24.77;100583.19;4977048;29;20032;-83
2022/04/18 08:23:53;;;;;;;4.72;1.88;;;;;;;17.75;25.93;100585.47;4976605;29;20039;-81
2022/04/18 08:26:34;;;;;;;8.65;1.90;;;;;;;18.21;25.84;100579.22;4972242;29;20091;-85
2022/04/18 08:29:08;;;;;;;3.17;1.80;;;;;;;18.94;24.13;100581.44;4972202;29;20050;-83
2022/04/18 08:31:52;;;;;;;8.43;1.63;;;;;;;18.34;24.45;100587.22;4957117;29;20565;-84
2022/04/18 08:34:30;;;;;;;2.92;1.60;;;;;;;18.04;25.28;100573.47;4953406;29;20040;-83
2022/04/18 08:36:56;;;;;;;7.10;1.92;;;;;;;18.42;25.00;100576.28;4962186;29;20134;-82
2022/04/18 08:39:23;;;;;;;8.30;1.83;;;;;;;17.73;25.74;100582.16;4973648;29;20069;-84
2022/04/18 08:42:01;;;;;;;4.80;2.15;;;;;;;18.47;24.84;100579.13;4957805;29;20098;-83
2022/04/18 08:44:34;;;;;;;3.42;1.73;;;;;;;18.65;23.86;100590.03;4968146;29;20043;-83
2022/04/18 08:47:00;;;;;;;5.25;1.90;;;;;;;18.02;25.19;100576.38;4970047;29;20111;-82
2022/04/18 08:55:07;;;;;;;6.20;2.13;;;;;;;18.46;24.55;100561.41;4974940;29;20039;-84
2022/04/18 08:57:35;;;;;;;5.03;1.90;;;;;;;18.22;24.87;100554.88;4946194;29;20061;-87
2022/04/18 09:00:03;;;;;;;4.18;2.00;;;;;;;18.39;24.88;100566.78;4957024;29;20110;-83
2022/04/18 09:02:30;;;;;;;5.25;2.08;;;;;;;18.52;24.91;100555.22;4964809;28;20036;-81
2022/04/18 09:05:18;;;;;;;5.60;2.30;;;;;;;19.43;24.32;100558.41;4930304;29;20138;-82
2022/04/18 09:07:57;;;;;;;7.95;2.30;;;;;;;18.08;25.70;100558.59;4967157;29;20050;-82
2022/04/18 09:10:27;;;;;;;4.90;2.00;;;;;;;18.93;25.00;100557.47;4972593;29;20028;-84
2022/04/18 09:13:01;;;;;;;8.68;2.83;;;;;;;18.97;25.14;100543.41;4970071;28;20070;-85
2022/04/18 09:15:39;;;;;;;5.53;1.83;;;;;;;19.43;25.28;100545.78;4972841;28;20051;-84
2022/04/18 09:18:17;;;;;;;6.22;2.38;;;;;;;19.65;23.99;100556.16;4977606;28;20069;-85
2022/04/18 09:20:56;;;;;;;5.72;2.22;;;;;;;19.25;23.82;100551.06;4958159;29;20027;-84
2022/04/18 09:23:28;;;;;;;5.90;2.50;;;;;;;19.12;24.51;100545.78;4966355;29;20035;-87
2022/04/18 09:26:03;;;;;;;8.07;2.53;;;;;;;19.63;23.89;100545.63;4958984;29;20032;-88
2022/04/18 09:28:34;;;;;;;3.88;2.40;;;;;;;20.00;23.50;100555.41;4952929;28;20088;-86
2022/04/18 09:31:06;;;;;;;6.93;2.95;;;;;;;20.36;22.87;100545.72;4962656;29;20050;-88
2022/04/18 09:33:56;;;;;;;7.78;2.50;;;;;;;20.18;23.67;100540.31;4937331;29;20036;-82
2022/04/18 09:36:23;;;;;;;3.13;1.92;;;;;;;20.58;23.04;100542.31;4976859;28;20027;-86
2022/04/18 09:38:53;;;;;;;3.97;2.08;;;;;;;20.65;24.01;100531.47;4958770;29;20522;-82
2022/04/18 09:42:08;;;;;;;3.20;1.67;;;;;;;20.30;24.02;100549.31;4970627;28;20032;-85
2022/04/18 09:45:33;;;;;;;3.78;1.77;;;;;;;20.70;23.48;100528.94;4978096;29;20064;-84
2022/04/18 09:48:03;;;;;;;4.07;2.40;;;;;;;19.91;24.71;100532.53;4977586;28;20039;-83
2022/04/18 09:53:44;;;;;;;3.70;2.55;;;;;;;21.02;23.38;100518.72;4917499;29;20100;-87
2022/04/18 09:56:17;;;;;;;7.72;2.80;;;;;;;20.93;23.56;100514.72;4915120;29;20032;-84
2022/04/18 09:58:43;;;;;;;7.95;3.03;;;;;;;21.09;22.72;100524.84;4908892;29;20136;-82
2022/04/18 10:01:10;;;;;;;4.53;2.15;;;;;;;20.29;23.62;100520.75;4921121;29;20048;-83
2022/04/18 10:03:38;;;;;;;6.05;2.30;;;;;;;19.99;23.88;100521.47;4934489;29;20099;-83
2022/04/18 10:06:05;;;;;;;5.25;2.30;;;;;;;20.36;23.34;100516.09;4935224;29;20044;-83
2022/04/18 10:08:34;;;;;;;3.90;2.20;;;;;;;20.29;23.21;100504.59;4918763;29;20069;-82
2022/04/18 10:11:08;;;;;;;10.25;2.47;;;;;;;21.29;22.27;100494.91;4906172;29;20105;-85
2022/04/18 10:13:35;;;;;;;9.02;3.90;;;;;;;21.33;21.84;100496.09;4943132;29;20040;-86
2022/04/18 10:16:07;;;;;;;7.10;2.28;;;;;;;20.73;22.75;100493.44;4926945;29;20048;-85
2022/04/18 10:19:19;;;;;;;7.47;3.38;;;;;;;20.65;23.21;100484.88;4936457;29;20059;-86
2022/04/18 10:22:07;;;;;;;;;;;;;;;21.63;22.51;100481.44;4888349;29;20045;-83
2022/04/18 10:25:08;;;;;;;5.03;2.45;;;;;;;21.75;22.28;100473.34;4888491;29;19932;-82
2022/04/18 10:27:55;;;;;;;5.55;2.80;;;;;;;21.66;22.43;100469.34;4874604;29;20537;-82
2022/04/18 10:30:22;;;;;;;6.25;3.72;;;;;;;22.04;22.08;100466.97;4904883;29;20103;-86
2022/04/18 10:32:48;;;;;;;10.30;2.50;;;;;;;22.57;21.87;100460.47;4942875;29;20075;-84
2022/04/18 10:35:17;;;;;;;6.80;3.10;;;;;;;22.90;21.43;100465.94;4962482;29;20034;-84
2022/04/18 10:37:43;;;;;;;4.75;2.50;;;;;;;23.87;20.19;100465.56;4969735;29;20133;-82
2022/04/18 10:40:09;;;;;;;7.07;2.60;;;;;;;23.73;20.46;100467.03;4961980;29;20079;-83
2022/04/18 10:42:43;;;;;;;4.60;2.28;;;;;;;24.09;19.72;100459.13;4975264;28;20042;-81
2022/04/18 10:45:24;;;;;;;4.97;3.00;;;;;;;24.57;19.78;100457.50;4958364;29;20042;-82
2022/04/18 10:47:56;;;;;;;11.00;4.17;;;;;;;22.60;21.84;100438.38;4966469;29;20147;-85
2022/04/18 10:50:24;;;;;;;13.82;5.40;;;;;;;22.34;22.58;100436.28;4957273;29;20297;-83
2022/04/18 10:53:17;;;;;;;5.95;2.85;;;;;;;23.10;21.98;100435.75;4968404;29;20024;-83
2022/04/18 10:55:54;;;;;;;16.95;5.20;;;;;;;22.50;22.21;100441.72;4968295;29;20062;-80
2022/04/18 10:58:25;;;;;;;25.90;11.00;;;;;;;23.05;21.67;100436.50;4974973;28;20043;-80
2022/04/18 11:00:53;;;;;;;6.63;2.97;;;;;;;22.07;22.23;100431.41;4957472;29;20036;-83
2022/04/18 11:03:39;;;;;;;8.15;3.60;;;;;;;21.86;22.62;100432.03;4954908;29;20458;-84
2022/04/18 11:06:36;;;;;;;7.80;3.20;;;;;;;22.62;22.33;100418.16;4955314;29;20067;-84
2022/04/18 11:09:07;;;;;;;7.43;2.72;;;;;;;23.35;21.39;100419.09;4958735;29;20078;-84
2022/04/18 11:11:44;;;;;;;5.65;2.75;;;;;;;23.25;21.71;100422.47;4961395;29;20438;-84
2022/04/18 11:14:28;;;;;;;5.47;2.65;;;;;;;22.88;21.74;100418.63;4957479;29;20047;-80
2022/04/18 11:17:25;;;;;;;6.38;2.78;;;;;;;23.21;22.16;100412.38;4958771;29;20070;-84
2022/04/18 11:19:50;;;;;;;5.28;2.60;;;;;;;22.41;22.53;100412.63;4955238;29;20036;-82
2022/04/18 11:22:19;;;;;;;6.30;2.72;;;;;;;23.88;21.38;100410.38;4957109;29;20101;-85
2022/04/18 11:24:51;;;;;;;7.97;3.67;;;;;;;23.93;21.16;100411.25;4958903;29;20023;-84
2022/04/18 11:30:20;;;;;;;5.53;2.97;;;;;;;22.47;22.43;100400.88;4974990;23;20562;-85
2022/04/18 11:32:47;;;;;;;11.10;4.60;;;;;;;21.96;23.18;100394.50;4958631;29;20082;-82
2022/04/18 11:35:19;;;;;;;7.95;2.72;;;;;;;21.63;23.61;100395.13;4939950;29;20086;-83
2022/04/18 11:37:45;;;;;;;5.45;2.50;;;;;;;22.08;23.45;100386.34;4971028;29;20091;-82
2022/04/18 11:40:14;;;;;;;5.22;2.50;;;;;;;23.18;22.94;100387.47;4972638;28;20038;-83
2022/04/18 11:42:43;;;;;;;4.90;2.80;;;;;;;22.38;23.09;100380.69;4970899;29;20056;-81
2022/04/18 11:45:20;;;;;;;6.55;2.67;;;;;;;21.47;24.13;100378.84;4947174;29;20042;-81
2022/04/18 11:48:09;;;;;;;6.03;3.08;;;;;;;20.54;24.47;100368.00;4960692;29;20039;-83
2022/04/18 11:50:37;;;;;;;6.75;3.05;;;;;;;20.25;25.31;100366.13;4954298;29;20039;-81
2022/04/18 11:53:12;;;;;;;6.18;3.22;;;;;;;19.69;26.54;100364.56;4963673;29;20035;-81
2022/04/18 11:55:46;;;;;;;8.02;3.15;;;;;;;19.16;26.92;100364.28;4958054;29;20035;-80
2022/04/18 11:58:19;;;;;;;5.70;3.15;;;;;;;18.79;27.67;100358.00;4945534;29;20031;-80
2022/04/18 12:09:10;;;;;;;6.72;3.25;;;;;;;18.15;28.73;100349.38;4965129;29;20048;-86
2022/04/18 12:11:36;;;;;;;6.95;3.38;;;;;;;17.87;29.09;100337.13;4966511;29;20035;-85
2022/04/18 12:14:02;;;;;;;6.47;3.72;;;;;;;17.99;29.53;100343.47;4954603;29;20034;-86
2022/04/18 12:16:34;;;;;;;6.18;3.75;;;;;;;18.08;29.73;100338.69;4952848;29;20035;-88
2022/04/18 12:19:00;;;;;;;6.13;3.20;;;;;;;18.32;28.81;100337.91;4947069;29;20078;-86
2022/04/18 12:21:26;;;;;;;6.63;3.55;;;;;;;18.42;29.14;100318.66;4968211;29;20036;-89
2022/04/18 12:24:02;;;;;;;8.18;3.88;;;;;;;18.34;29.24;100322.41;4983374;28;20059;-89
2022/04/18 12:26:35;;;;;;;12.48;4.40;;;;;;;18.51;29.53;100328.09;4948600;29;20020;-84
2022/04/18 12:29:07;;;;;;;8.23;4.07;;;;;;;18.39;29.10;100327.97;4959416;29;20051;-86
2022/04/18 12:31:33;;;;;;;9.68;4.30;;;;;;;18.05;29.76;100318.47;4963714;28;20035;-86